sensor_id;sensor_type;location;lat;lon;timestamp;P1;durP1;ratioP1;P2;durP2;ratioP2
11220;SDS011;8517;53.546;10.104;2023-10-13T00:01:21;5.83;;;2.43;;
11220;SDS011;8517;53.546;10.104;2023-10-13T00:03:49;6.97;;;2.50;;
11220;SDS011;8517;53.546;10.104;2023-10-13T00:06:17;8.93;;;2.50;;
11220;SDS011;8517;53.546;10.104;2023-10-13T00:08:44;4.10;;;2.23;;
11220;SDS011;8517;53.546;10.104;2023-10-13T00:11:15;7.03;;;2.50;;
11220;SDS011;8517;53.546;10.104;2023-10-13T00:13:43;8.43;;;2.83;;
11220;SDS011;8517;53.546;10.104;2023-10-13T00:16:15;9.83;;;2.97;;
11220;SDS011;8517;53.546;10.104;2023-10-13T00:18:46;6.40;;;2.43;;
11220;SDS011;8517;53.546;10.104;2023-10-13T00:21:15;6.00;;;2.70;;
11220;SDS011;8517;53.546;10.104;2023-10-13T00:23:45;3.73;;;2.20;;
11220;SDS011;8517;53.546;10.104;2023-10-13T00:26:19;8.40;;;2.53;;
11220;SDS011;8517;53.546;10.104;2023-10-13T00:28:52;8.43;;;2.90;;
11220;SDS011;8517;53.546;10.104;2023-10-13T00:31:34;9.47;;;2.87;;
11220;SDS011;8517;53.546;10.104;2023-10-13T00:34:03;8.50;;;2.80;;
11220;SDS011;8517;53.546;10.104;2023-10-13T00:36:43;8.83;;;3.00;;
11220;SDS011;8517;53.546;10.104;2023-10-13T00:39:13;10.23;;;2.90;;
11220;SDS011;8517;53.546;10.104;2023-10-13T00:41:42;9.87;;;2.93;;
11220;SDS011;8517;53.546;10.104;2023-10-13T00:44:23;10.47;;;2.93;;
11220;SDS011;8517;53.546;10.104;2023-10-13T00:46:53;8.10;;;3.00;;
11220;SDS011;8517;53.546;10.104;2023-10-13T00:49:22;9.33;;;3.37;;
11220;SDS011;8517;53.546;10.104;2023-10-13T00:51:49;8.03;;;2.80;;
11220;SDS011;8517;53.546;10.104;2023-10-13T00:54:16;7.77;;;3.00;;
11220;SDS011;8517;53.546;10.104;2023-10-13T00:56:53;7.43;;;2.77;;
11220;SDS011;8517;53.546;10.104;2023-10-13T00:59:28;12.10;;;3.43;;
11220;SDS011;8517;53.546;10.104;2023-10-13T01:01:58;6.90;;;3.10;;
11220;SDS011;8517;53.546;10.104;2023-10-13T01:04:45;10.57;;;3.57;;
11220;SDS011;8517;53.546;10.104;2023-10-13T01:07:11;7.23;;;3.33;;
11220;SDS011;8517;53.546;10.104;2023-10-13T01:09:40;7.43;;;3.87;;
11220;SDS011;8517;53.546;10.104;2023-10-13T01:12:08;7.60;;;3.53;;
11220;SDS011;8517;53.546;10.104;2023-10-13T01:14:35;9.13;;;3.40;;
11220;SDS011;8517;53.546;10.104;2023-10-13T01:17:01;6.77;;;3.30;;
11220;SDS011;8517;53.546;10.104;2023-10-13T01:19:29;9.93;;;3.70;;
11220;SDS011;8517;53.546;10.104;2023-10-13T01:21:55;10.33;;;4.10;;
11220;SDS011;8517;53.546;10.104;2023-10-13T01:24:30;11.00;;;4.33;;
11220;SDS011;8517;53.546;10.104;2023-10-13T01:26:59;9.70;;;4.23;;
11220;SDS011;8517;53.546;10.104;2023-10-13T01:29:40;9.70;;;4.70;;
11220;SDS011;8517;53.546;10.104;2023-10-13T01:32:06;6.57;;;3.40;;
11220;SDS011;8517;53.546;10.104;2023-10-13T01:34:37;14.80;;;5.23;;
11220;SDS011;8517;53.546;10.104;2023-10-13T01:37:04;10.43;;;4.50;;
11220;SDS011;8517;53.546;10.104;2023-10-13T01:39:32;9.60;;;5.00;;
11220;SDS011;8517;53.546;10.104;2023-10-13T01:41:58;10.30;;;4.67;;
11220;SDS011;8517;53.546;10.104;2023-10-13T01:44:26;10.00;;;4.90;;
11220;SDS011;8517;53.546;10.104;2023-10-13T01:46:53;11.27;;;5.60;;
11220;SDS011;8517;53.546;10.104;2023-10-13T01:49:20;11.73;;;5.50;;
11220;SDS011;8517;53.546;10.104;2023-10-13T01:51:48;11.60;;;5.40;;
11220;SDS011;8517;53.546;10.104;2023-10-13T01:54:14;10.97;;;5.57;;
11220;SDS011;8517;53.546;10.104;2023-10-13T01:56:42;10.23;;;5.50;;
11220;SDS011;8517;53.546;10.104;2023-10-13T01:59:09;9.57;;;4.97;;
11220;SDS011;8517;53.546;10.104;2023-10-13T02:01:36;9.40;;;4.83;;
11220;SDS011;8517;53.546;10.104;2023-10-13T02:04:03;13.70;;;5.70;;
11220;SDS011;8517;53.546;10.104;2023-10-13T02:06:30;14.20;;;5.47;;
11220;SDS011;8517;53.546;10.104;2023-10-13T02:08:59;11.27;;;5.70;;
11220;SDS011;8517;53.546;10.104;2023-10-13T02:11:35;12.33;;;5.83;;
11220;SDS011;8517;53.546;10.104;2023-10-13T02:14:03;12.50;;;6.20;;
11220;SDS011;8517;53.546;10.104;2023-10-13T02:16:29;12.20;;;5.70;;
11220;SDS011;8517;53.546;10.104;2023-10-13T02:18:57;14.03;;;6.70;;
11220;SDS011;8517;53.546;10.104;2023-10-13T02:21:23;13.60;;;6.77;;
11220;SDS011;8517;53.546;10.104;2023-10-13T02:23:56;14.87;;;7.40;;
11220;SDS011;8517;53.546;10.104;2023-10-13T02:26:25;15.40;;;7.47;;
11220;SDS011;8517;53.546;10.104;2023-10-13T02:28:57;12.17;;;7.57;;
11220;SDS011;8517;53.546;10.104;2023-10-13T02:31:25;10.83;;;6.37;;
11220;SDS011;8517;53.546;10.104;2023-10-13T02:33:52;15.77;;;6.80;;
11220;SDS011;8517;53.546;10.104;2023-10-13T02:36:18;12.57;;;7.20;;
11220;SDS011;8517;53.546;10.104;2023-10-13T02:38:47;12.87;;;7.07;;
11220;SDS011;8517;53.546;10.104;2023-10-13T02:41:16;15.23;;;7.43;;
11220;SDS011;8517;53.546;10.104;2023-10-13T02:43:51;14.80;;;7.60;;
11220;SDS011;8517;53.546;10.104;2023-10-13T02:46:17;13.67;;;7.50;;
11220;SDS011;8517;53.546;10.104;2023-10-13T02:48:48;12.73;;;7.30;;
11220;SDS011;8517;53.546;10.104;2023-10-13T02:51:19;16.67;;;7.87;;
11220;SDS011;8517;53.546;10.104;2023-10-13T02:53:50;13.53;;;7.67;;
11220;SDS011;8517;53.546;10.104;2023-10-13T02:56:17;12.23;;;7.67;;
11220;SDS011;8517;53.546;10.104;2023-10-13T02:58:46;15.77;;;8.37;;
11220;SDS011;8517;53.546;10.104;2023-10-13T03:01:18;14.80;;;8.37;;
11220;SDS011;8517;53.546;10.104;2023-10-13T03:03:45;16.77;;;8.33;;
11220;SDS011;8517;53.546;10.104;2023-10-13T03:06:19;12.23;;;8.13;;
11220;SDS011;8517;53.546;10.104;2023-10-13T03:08:48;18.37;;;8.57;;
11220;SDS011;8517;53.546;10.104;2023-10-13T03:11:15;12.73;;;6.83;;
11220;SDS011;8517;53.546;10.104;2023-10-13T03:13:46;15.13;;;9.30;;
11220;SDS011;8517;53.546;10.104;2023-10-13T03:16:16;16.73;;;8.83;;
11220;SDS011;8517;53.546;10.104;2023-10-13T03:18:43;15.00;;;9.47;;
11220;SDS011;8517;53.546;10.104;2023-10-13T03:21:20;18.63;;;9.90;;
11220;SDS011;8517;53.546;10.104;2023-10-13T03:23:56;18.07;;;9.83;;
11220;SDS011;8517;53.546;10.104;2023-10-13T03:26:29;17.27;;;9.67;;
11220;SDS011;8517;53.546;10.104;2023-10-13T03:29:00;13.53;;;9.20;;
11220;SDS011;8517;53.546;10.104;2023-10-13T03:31:28;14.30;;;9.07;;
11220;SDS011;8517;53.546;10.104;2023-10-13T03:33:54;11.47;;;8.27;;
11220;SDS011;8517;53.546;10.104;2023-10-13T03:36:26;11.60;;;8.77;;
11220;SDS011;8517;53.546;10.104;2023-10-13T03:39:10;13.60;;;8.87;;
11220;SDS011;8517;53.546;10.104;2023-10-13T03:41:39;11.03;;;8.33;;
11220;SDS011;8517;53.546;10.104;2023-10-13T03:44:06;9.80;;;7.57;;
11220;SDS011;8517;53.546;10.104;2023-10-13T03:46:40;10.07;;;7.77;;
11220;SDS011;8517;53.546;10.104;2023-10-13T03:49:07;11.43;;;7.53;;
11220;SDS011;8517;53.546;10.104;2023-10-13T03:51:39;11.37;;;7.80;;
11220;SDS011;8517;53.546;10.104;2023-10-13T03:54:06;11.20;;;7.77;;
11220;SDS011;8517;53.546;10.104;2023-10-13T03:56:33;9.87;;;8.10;;
11220;SDS011;8517;53.546;10.104;2023-10-13T03:59:05;11.17;;;8.43;;
11220;SDS011;8517;53.546;10.104;2023-10-13T04:01:35;15.00;;;9.37;;
11220;SDS011;8517;53.546;10.104;2023-10-13T04:04:10;15.77;;;8.33;;
11220;SDS011;8517;53.546;10.104;2023-10-13T04:06:41;11.27;;;9.43;;
11220;SDS011;8517;53.546;10.104;2023-10-13T04:09:17;14.17;;;10.07;;
11220;SDS011;8517;53.546;10.104;2023-10-13T04:12:03;14.50;;;9.80;;
11220;SDS011;8517;53.546;10.104;2023-10-13T04:15:03;19.10;;;10.50;;
11220;SDS011;8517;53.546;10.104;2023-10-13T04:17:52;13.33;;;9.27;;
11220;SDS011;8517;53.546;10.104;2023-10-13T04:20:19;12.50;;;9.57;;
11220;SDS011;8517;53.546;10.104;2023-10-13T04:22:59;15.87;;;11.43;;
11220;SDS011;8517;53.546;10.104;2023-10-13T04:25:47;16.37;;;11.20;;
11220;SDS011;8517;53.546;10.104;2023-10-13T04:28:46;15.87;;;10.97;;
11220;SDS011;8517;53.546;10.104;2023-10-13T04:31:18;15.10;;;11.33;;
11220;SDS011;8517;53.546;10.104;2023-10-13T04:34:11;14.67;;;11.53;;
11220;SDS011;8517;53.546;10.104;2023-10-13T04:36:53;16.47;;;11.67;;
11220;SDS011;8517;53.546;10.104;2023-10-13T04:39:37;15.83;;;12.00;;
11220;SDS011;8517;53.546;10.104;2023-10-13T04:42:04;15.33;;;12.00;;
11220;SDS011;8517;53.546;10.104;2023-10-13T04:44:38;17.87;;;11.50;;
11220;SDS011;8517;53.546;10.104;2023-10-13T04:47:17;16.60;;;11.50;;
11220;SDS011;8517;53.546;10.104;2023-10-13T04:49:46;17.07;;;12.20;;
11220;SDS011;8517;53.546;10.104;2023-10-13T04:52:17;21.57;;;12.40;;
11220;SDS011;8517;53.546;10.104;2023-10-13T04:55:12;18.87;;;13.10;;
11220;SDS011;8517;53.546;10.104;2023-10-13T04:58:02;18.53;;;12.23;;
11220;SDS011;8517;53.546;10.104;2023-10-13T05:00:39;16.43;;;12.23;;
11220;SDS011;8517;53.546;10.104;2023-10-13T05:03:21;16.30;;;12.53;;
11220;SDS011;8517;53.546;10.104;2023-10-13T05:06:17;19.47;;;13.17;;
11220;SDS011;8517;53.546;10.104;2023-10-13T05:08:58;17.40;;;12.87;;
11220;SDS011;8517;53.546;10.104;2023-10-13T05:11:43;18.47;;;13.40;;
11220;SDS011;8517;53.546;10.104;2023-10-13T05:14:42;16.77;;;13.13;;
11220;SDS011;8517;53.546;10.104;2023-10-13T05:17:26;18.00;;;14.33;;
11220;SDS011;8517;53.546;10.104;2023-10-13T05:20:11;20.13;;;15.07;;
11220;SDS011;8517;53.546;10.104;2023-10-13T05:22:57;30.67;;;24.97;;
11220;SDS011;8517;53.546;10.104;2023-10-13T05:25:42;20.00;;;15.17;;
11220;SDS011;8517;53.546;10.104;2023-10-13T05:28:27;21.37;;;16.17;;
11220;SDS011;8517;53.546;10.104;2023-10-13T05:31:23;23.47;;;17.33;;
11220;SDS011;8517;53.546;10.104;2023-10-13T05:34:07;24.40;;;18.17;;
11220;SDS011;8517;53.546;10.104;2023-10-13T05:36:52;24.07;;;18.70;;
11220;SDS011;8517;53.546;10.104;2023-10-13T05:39:36;24.30;;;18.63;;
11220;SDS011;8517;53.546;10.104;2023-10-13T05:42:20;27.87;;;19.43;;
11220;SDS011;8517;53.546;10.104;2023-10-13T05:45:06;30.80;;;21.50;;
11220;SDS011;8517;53.546;10.104;2023-10-13T05:48:22;29.97;;;21.50;;
11220;SDS011;8517;53.546;10.104;2023-10-13T05:51:06;60.17;;;49.33;;
11220;SDS011;8517;53.546;10.104;2023-10-13T05:53:50;34.40;;;25.17;;
11220;SDS011;8517;53.546;10.104;2023-10-13T05:56:35;32.87;;;23.17;;
11220;SDS011;8517;53.546;10.104;2023-10-13T05:59:19;32.17;;;24.13;;
11220;SDS011;8517;53.546;10.104;2023-10-13T06:02:05;31.67;;;23.37;;
11220;SDS011;8517;53.546;10.104;2023-10-13T06:04:49;30.60;;;23.10;;
11220;SDS011;8517;53.546;10.104;2023-10-13T06:07:33;33.60;;;24.17;;
11220;SDS011;8517;53.546;10.104;2023-10-13T06:10:17;30.50;;;23.47;;
11220;SDS011;8517;53.546;10.104;2023-10-13T06:13:02;29.03;;;23.40;;
11220;SDS011;8517;53.546;10.104;2023-10-13T06:15:46;31.80;;;22.80;;
11220;SDS011;8517;53.546;10.104;2023-10-13T06:18:32;27.73;;;22.97;;
11220;SDS011;8517;53.546;10.104;2023-10-13T06:21:16;30.80;;;23.57;;
11220;SDS011;8517;53.546;10.104;2023-10-13T06:24:00;29.50;;;23.57;;
11220;SDS011;8517;53.546;10.104;2023-10-13T06:26:46;30.50;;;23.23;;
11220;SDS011;8517;53.546;10.104;2023-10-13T06:29:31;30.57;;;24.17;;
11220;SDS011;8517;53.546;10.104;2023-10-13T06:31:58;27.60;;;24.40;;
11220;SDS011;8517;53.546;10.104;2023-10-13T06:34:28;26.27;;;23.03;;
11220;SDS011;8517;53.546;10.104;2023-10-13T06:37:03;30.70;;;24.77;;
11220;SDS011;8517;53.546;10.104;2023-10-13T06:39:47;29.60;;;23.57;;
11220;SDS011;8517;53.546;10.104;2023-10-13T06:42:13;28.10;;;24.43;;
11220;SDS011;8517;53.546;10.104;2023-10-13T06:44:41;32.20;;;24.90;;
11220;SDS011;8517;53.546;10.104;2023-10-13T06:47:10;29.73;;;24.70;;
11220;SDS011;8517;53.546;10.104;2023-10-13T06:49:38;30.90;;;23.67;;
11220;SDS011;8517;53.546;10.104;2023-10-13T06:52:08;30.53;;;24.93;;
11220;SDS011;8517;53.546;10.104;2023-10-13T06:54:35;27.37;;;24.10;;
11220;SDS011;8517;53.546;10.104;2023-10-13T06:57:03;29.60;;;24.63;;
11220;SDS011;8517;53.546;10.104;2023-10-13T06:59:32;30.17;;;25.13;;
11220;SDS011;8517;53.546;10.104;2023-10-13T07:02:01;29.23;;;25.30;;
11220;SDS011;8517;53.546;10.104;2023-10-13T07:04:30;30.37;;;25.33;;
11220;SDS011;8517;53.546;10.104;2023-10-13T07:06:59;29.57;;;25.77;;
11220;SDS011;8517;53.546;10.104;2023-10-13T07:09:26;30.57;;;25.40;;
11220;SDS011;8517;53.546;10.104;2023-10-13T07:12:06;28.97;;;24.47;;
11220;SDS011;8517;53.546;10.104;2023-10-13T07:14:44;29.87;;;26.23;;
11220;SDS011;8517;53.546;10.104;2023-10-13T07:17:17;29.70;;;26.33;;
11220;SDS011;8517;53.546;10.104;2023-10-13T07:19:48;29.97;;;24.47;;
11220;SDS011;8517;53.546;10.104;2023-10-13T07:22:21;29.57;;;25.53;;
11220;SDS011;8517;53.546;10.104;2023-10-13T07:24:53;59.00;;;47.93;;
11220;SDS011;8517;53.546;10.104;2023-10-13T07:27:23;34.40;;;28.90;;
11220;SDS011;8517;53.546;10.104;2023-10-13T07:29:50;27.87;;;24.87;;
11220;SDS011;8517;53.546;10.104;2023-10-13T07:32:22;26.77;;;23.73;;
11220;SDS011;8517;53.546;10.104;2023-10-13T07:34:52;25.87;;;23.27;;
11220;SDS011;8517;53.546;10.104;2023-10-13T07:37:24;26.23;;;22.80;;
11220;SDS011;8517;53.546;10.104;2023-10-13T07:39:54;25.40;;;22.63;;
11220;SDS011;8517;53.546;10.104;2023-10-13T07:42:24;26.77;;;21.73;;
11220;SDS011;8517;53.546;10.104;2023-10-13T07:44:57;24.80;;;22.20;;
11220;SDS011;8517;53.546;10.104;2023-10-13T07:47:24;26.50;;;21.50;;
11220;SDS011;8517;53.546;10.104;2023-10-13T07:49:53;22.93;;;20.43;;
11220;SDS011;8517;53.546;10.104;2023-10-13T07:52:22;23.97;;;21.27;;
11220;SDS011;8517;53.546;10.104;2023-10-13T07:55:01;22.77;;;20.37;;
11220;SDS011;8517;53.546;10.104;2023-10-13T07:57:37;21.30;;;19.10;;
11220;SDS011;8517;53.546;10.104;2023-10-13T08:00:18;20.53;;;18.40;;
11220;SDS011;8517;53.546;10.104;2023-10-13T08:02:56;21.00;;;18.17;;
11220;SDS011;8517;53.546;10.104;2023-10-13T08:05:32;18.83;;;16.93;;
11220;SDS011;8517;53.546;10.104;2023-10-13T08:08:09;17.77;;;16.07;;
11220;SDS011;8517;53.546;10.104;2023-10-13T08:10:39;16.80;;;15.10;;
11220;SDS011;8517;53.546;10.104;2023-10-13T08:13:10;17.03;;;15.23;;
11220;SDS011;8517;53.546;10.104;2023-10-13T08:15:39;15.73;;;14.13;;
11220;SDS011;8517;53.546;10.104;2023-10-13T08:18:12;15.97;;;14.37;;
11220;SDS011;8517;53.546;10.104;2023-10-13T08:20:45;15.83;;;14.13;;
11220;SDS011;8517;53.546;10.104;2023-10-13T08:23:18;15.47;;;13.70;;
11220;SDS011;8517;53.546;10.104;2023-10-13T08:25:59;14.20;;;12.90;;
11220;SDS011;8517;53.546;10.104;2023-10-13T08:28:44;14.10;;;12.80;;
11220;SDS011;8517;53.546;10.104;2023-10-13T08:31:19;14.23;;;12.83;;
11220;SDS011;8517;53.546;10.104;2023-10-13T08:33:47;12.90;;;11.70;;
11220;SDS011;8517;53.546;10.104;2023-10-13T08:36:14;14.67;;;12.27;;
11220;SDS011;8517;53.546;10.104;2023-10-13T08:38:54;13.37;;;11.97;;
11220;SDS011;8517;53.546;10.104;2023-10-13T08:41:22;14.13;;;12.53;;
11220;SDS011;8517;53.546;10.104;2023-10-13T08:43:59;13.13;;;11.73;;
11220;SDS011;8517;53.546;10.104;2023-10-13T08:46:34;13.63;;;11.87;;
11220;SDS011;8517;53.546;10.104;2023-10-13T08:49:26;12.47;;;11.27;;
11220;SDS011;8517;53.546;10.104;2023-10-13T08:51:54;12.73;;;11.43;;
11220;SDS011;8517;53.546;10.104;2023-10-13T08:54:35;11.60;;;10.53;;
11220;SDS011;8517;53.546;10.104;2023-10-13T08:57:10;12.60;;;10.13;;
11220;SDS011;8517;53.546;10.104;2023-10-13T08:59:57;10.03;;;9.13;;
11220;SDS011;8517;53.546;10.104;2023-10-13T09:02:43;10.70;;;8.80;;
11220;SDS011;8517;53.546;10.104;2023-10-13T09:05:24;10.00;;;9.07;;
11220;SDS011;8517;53.546;10.104;2023-10-13T09:08:07;9.20;;;8.30;;
11220;SDS011;8517;53.546;10.104;2023-10-13T09:10:35;9.23;;;8.43;;
11220;SDS011;8517;53.546;10.104;2023-10-13T09:13:20;9.60;;;7.93;;
11220;SDS011;8517;53.546;10.104;2023-10-13T09:15:47;8.67;;;7.87;;
11220;SDS011;8517;53.546;10.104;2023-10-13T09:18:26;9.30;;;8.37;;
11220;SDS011;8517;53.546;10.104;2023-10-13T09:21:06;8.13;;;7.43;;
11220;SDS011;8517;53.546;10.104;2023-10-13T09:23:55;9.77;;;7.23;;
11220;SDS011;8517;53.546;10.104;2023-10-13T09:26:43;6.73;;;6.07;;
11220;SDS011;8517;53.546;10.104;2023-10-13T09:29:19;7.03;;;6.33;;
11220;SDS011;8517;53.546;10.104;2023-10-13T09:31:57;6.93;;;6.20;;
11220;SDS011;8517;53.546;10.104;2023-10-13T09:34:27;6.10;;;5.50;;
11220;SDS011;8517;53.546;10.104;2023-10-13T09:36:57;5.70;;;5.10;;
11220;SDS011;8517;53.546;10.104;2023-10-13T09:39:24;5.40;;;4.90;;
11220;SDS011;8517;53.546;10.104;2023-10-13T09:42:06;7.43;;;5.37;;
11220;SDS011;8517;53.546;10.104;2023-10-13T09:44:35;6.47;;;5.50;;
11220;SDS011;8517;53.546;10.104;2023-10-13T09:47:02;6.60;;;5.37;;
11220;SDS011;8517;53.546;10.104;2023-10-13T09:49:37;10.20;;;6.20;;
11220;SDS011;8517;53.546;10.104;2023-10-13T09:52:14;5.87;;;4.60;;
11220;SDS011;8517;53.546;10.104;2023-10-13T09:54:49;7.50;;;5.37;;
11220;SDS011;8517;53.546;10.104;2023-10-13T09:57:26;7.47;;;4.97;;
11220;SDS011;8517;53.546;10.104;2023-10-13T10:00:06;8.93;;;5.97;;
11220;SDS011;8517;53.546;10.104;2023-10-13T10:03:00;9.90;;;4.87;;
11220;SDS011;8517;53.546;10.104;2023-10-13T10:05:40;10.00;;;5.13;;
11220;SDS011;8517;53.546;10.104;2023-10-13T10:08:06;8.43;;;5.13;;
11220;SDS011;8517;53.546;10.104;2023-10-13T10:10:43;10.20;;;4.70;;
11220;SDS011;8517;53.546;10.104;2023-10-13T10:13:21;9.83;;;5.00;;
11220;SDS011;8517;53.546;10.104;2023-10-13T10:15:59;7.93;;;4.97;;
11220;SDS011;8517;53.546;10.104;2023-10-13T10:18:33;8.53;;;4.93;;
11220;SDS011;8517;53.546;10.104;2023-10-13T10:21:03;8.83;;;4.80;;
11220;SDS011;8517;53.546;10.104;2023-10-13T10:23:33;9.87;;;5.17;;
11220;SDS011;8517;53.546;10.104;2023-10-13T10:26:10;7.77;;;4.97;;
11220;SDS011;8517;53.546;10.104;2023-10-13T10:28:40;8.10;;;5.53;;
11220;SDS011;8517;53.546;10.104;2023-10-13T10:31:08;8.57;;;5.43;;
11220;SDS011;8517;53.546;10.104;2023-10-13T10:33:38;8.63;;;5.53;;
11220;SDS011;8517;53.546;10.104;2023-10-13T10:36:05;7.80;;;5.87;;
11220;SDS011;8517;53.546;10.104;2023-10-13T10:38:38;9.67;;;6.17;;
11220;SDS011;8517;53.546;10.104;2023-10-13T10:41:05;10.53;;;6.13;;
11220;SDS011;8517;53.546;10.104;2023-10-13T10:43:36;8.77;;;5.23;;
11220;SDS011;8517;53.546;10.104;2023-10-13T10:46:10;8.30;;;5.83;;
11220;SDS011;8517;53.546;10.104;2023-10-13T10:48:38;10.17;;;5.93;;
11220;SDS011;8517;53.546;10.104;2023-10-13T10:51:08;8.50;;;5.63;;
11220;SDS011;8517;53.546;10.104;2023-10-13T10:53:49;12.03;;;6.00;;
11220;SDS011;8517;53.546;10.104;2023-10-13T10:56:18;9.77;;;6.40;;
11220;SDS011;8517;53.546;10.104;2023-10-13T10:58:53;8.83;;;6.73;;
11220;SDS011;8517;53.546;10.104;2023-10-13T11:01:26;10.50;;;8.00;;
11220;SDS011;8517;53.546;10.104;2023-10-13T11:04:04;10.50;;;7.63;;
11220;SDS011;8517;53.546;10.104;2023-10-13T11:06:44;9.57;;;7.57;;
11220;SDS011;8517;53.546;10.104;2023-10-13T11:09:12;13.37;;;8.47;;
11220;SDS011;8517;53.546;10.104;2023-10-13T11:11:52;11.30;;;6.27;;
11220;SDS011;8517;53.546;10.104;2023-10-13T11:14:23;8.87;;;6.37;;
11220;SDS011;8517;53.546;10.104;2023-10-13T11:16:52;10.00;;;6.50;;
11220;SDS011;8517;53.546;10.104;2023-10-13T11:19:20;8.90;;;5.60;;
11220;SDS011;8517;53.546;10.104;2023-10-13T11:21:52;9.60;;;6.30;;
11220;SDS011;8517;53.546;10.104;2023-10-13T11:24:20;11.40;;;5.93;;
11220;SDS011;8517;53.546;10.104;2023-10-13T11:26:49;8.90;;;5.93;;
11220;SDS011;8517;53.546;10.104;2023-10-13T11:29:30;9.67;;;6.00;;
11220;SDS011;8517;53.546;10.104;2023-10-13T11:32:00;8.63;;;5.50;;
11220;SDS011;8517;53.546;10.104;2023-10-13T11:34:28;9.20;;;5.33;;
11220;SDS011;8517;53.546;10.104;2023-10-13T11:37:07;11.47;;;5.93;;
11220;SDS011;8517;53.546;10.104;2023-10-13T11:40:03;9.67;;;5.60;;
11220;SDS011;8517;53.546;10.104;2023-10-13T11:42:58;7.57;;;5.70;;
11220;SDS011;8517;53.546;10.104;2023-10-13T11:49:09;8.40;;;4.83;;
11220;SDS011;8517;53.546;10.104;2023-10-13T11:51:56;8.10;;;5.20;;
11220;SDS011;8517;53.546;10.104;2023-10-13T11:54:38;8.43;;;4.87;;
11220;SDS011;8517;53.546;10.104;2023-10-13T11:57:07;7.40;;;5.20;;
11220;SDS011;8517;53.546;10.104;2023-10-13T11:59:34;9.77;;;5.10;;
11220;SDS011;8517;53.546;10.104;2023-10-13T12:02:09;10.17;;;5.53;;
11220;SDS011;8517;53.546;10.104;2023-10-13T12:04:56;8.87;;;5.50;;
11220;SDS011;8517;53.546;10.104;2023-10-13T12:07:24;10.00;;;5.13;;
11220;SDS011;8517;53.546;10.104;2023-10-13T12:10:08;10.07;;;5.03;;
11220;SDS011;8517;53.546;10.104;2023-10-13T12:12:41;7.60;;;4.83;;
11220;SDS011;8517;53.546;10.104;2023-10-13T12:15:11;9.50;;;4.80;;
11220;SDS011;8517;53.546;10.104;2023-10-13T12:17:51;11.37;;;5.50;;
11220;SDS011;8517;53.546;10.104;2023-10-13T12:20:19;11.17;;;4.90;;
11220;SDS011;8517;53.546;10.104;2023-10-13T12:22:57;6.73;;;4.27;;
11220;SDS011;8517;53.546;10.104;2023-10-13T12:25:35;8.80;;;5.33;;
11220;SDS011;8517;53.546;10.104;2023-10-13T12:28:19;11.80;;;4.90;;
11220;SDS011;8517;53.546;10.104;2023-10-13T12:30:48;10.90;;;5.03;;
11220;SDS011;8517;53.546;10.104;2023-10-13T12:33:17;8.57;;;5.17;;
11220;SDS011;8517;53.546;10.104;2023-10-13T12:35:54;6.23;;;4.30;;
11220;SDS011;8517;53.546;10.104;2023-10-13T12:38:32;9.57;;;4.73;;
11220;SDS011;8517;53.546;10.104;2023-10-13T12:41:16;10.63;;;4.57;;
11220;SDS011;8517;53.546;10.104;2023-10-13T12:44:01;10.87;;;4.90;;
11220;SDS011;8517;53.546;10.104;2023-10-13T12:46:46;11.67;;;5.23;;
11220;SDS011;8517;53.546;10.104;2023-10-13T12:49:32;10.47;;;4.77;;
11220;SDS011;8517;53.546;10.104;2023-10-13T12:52:15;9.20;;;4.90;;
11220;SDS011;8517;53.546;10.104;2023-10-13T12:54:44;9.70;;;4.93;;
11220;SDS011;8517;53.546;10.104;2023-10-13T12:57:12;8.93;;;5.33;;
11220;SDS011;8517;53.546;10.104;2023-10-13T12:59:40;10.77;;;5.50;;
11220;SDS011;8517;53.546;10.104;2023-10-13T13:02:07;10.57;;;5.60;;
11220;SDS011;8517;53.546;10.104;2023-10-13T13:04:40;11.37;;;5.07;;
11220;SDS011;8517;53.546;10.104;2023-10-13T13:07:09;11.67;;;5.13;;
11220;SDS011;8517;53.546;10.104;2023-10-13T13:09:40;8.52;;;4.68;;
11220;SDS011;8517;53.546;10.104;2023-10-13T13:12:08;11.20;;;5.45;;
11220;SDS011;8517;53.546;10.104;2023-10-13T13:14:38;12.20;;;5.55;;
11220;SDS011;8517;53.546;10.104;2023-10-13T13:17:10;9.25;;;5.40;;
11220;SDS011;8517;53.546;10.104;2023-10-13T13:19:37;9.90;;;6.30;;
11220;SDS011;8517;53.546;10.104;2023-10-13T13:22:05;16.75;;;7.20;;
11220;SDS011;8517;53.546;10.104;2023-10-13T13:24:36;11.10;;;6.40;;
11220;SDS011;8517;53.546;10.104;2023-10-13T13:27:09;10.63;;;5.72;;
11220;SDS011;8517;53.546;10.104;2023-10-13T13:29:39;12.88;;;5.40;;
11220;SDS011;8517;53.546;10.104;2023-10-13T13:32:06;10.85;;;5.40;;
11220;SDS011;8517;53.546;10.104;2023-10-13T13:34:42;9.70;;;5.43;;
11220;SDS011;8517;53.546;10.104;2023-10-13T13:37:09;7.57;;;5.03;;
11220;SDS011;8517;53.546;10.104;2023-10-13T13:39:37;10.73;;;4.88;;
11220;SDS011;8517;53.546;10.104;2023-10-13T13:42:09;10.80;;;5.68;;
11220;SDS011;8517;53.546;10.104;2023-10-13T13:44:42;13.38;;;5.78;;
11220;SDS011;8517;53.546;10.104;2023-10-13T13:47:11;12.38;;;5.32;;
11220;SDS011;8517;53.546;10.104;2023-10-13T13:49:38;9.27;;;5.30;;
11220;SDS011;8517;53.546;10.104;2023-10-13T13:52:06;11.18;;;4.90;;
11220;SDS011;8517;53.546;10.104;2023-10-13T13:54:33;11.35;;;5.28;;
11220;SDS011;8517;53.546;10.104;2023-10-13T13:57:00;9.63;;;5.28;;
11220;SDS011;8517;53.546;10.104;2023-10-13T13:59:28;12.45;;;5.30;;
11220;SDS011;8517;53.546;10.104;2023-10-13T14:01:59;11.70;;;4.93;;
11220;SDS011;8517;53.546;10.104;2023-10-13T14:04:31;10.07;;;5.65;;
11220;SDS011;8517;53.546;10.104;2023-10-13T14:06:59;9.35;;;5.50;;
11220;SDS011;8517;53.546;10.104;2023-10-13T14:09:31;11.60;;;5.00;;
11220;SDS011;8517;53.546;10.104;2023-10-13T14:12:01;10.13;;;5.22;;
11220;SDS011;8517;53.546;10.104;2023-10-13T14:14:47;10.50;;;5.45;;
11220;SDS011;8517;53.546;10.104;2023-10-13T14:17:20;13.13;;;5.30;;
11220;SDS011;8517;53.546;10.104;2023-10-13T14:19:51;10.50;;;5.78;;
11220;SDS011;8517;53.546;10.104;2023-10-13T14:22:20;11.68;;;5.85;;
11220;SDS011;8517;53.546;10.104;2023-10-13T14:24:50;12.73;;;5.93;;
11220;SDS011;8517;53.546;10.104;2023-10-13T14:27:19;9.40;;;5.75;;
11220;SDS011;8517;53.546;10.104;2023-10-13T14:29:50;10.55;;;5.28;;
11220;SDS011;8517;53.546;10.104;2023-10-13T14:32:20;12.73;;;5.47;;
11220;SDS011;8517;53.546;10.104;2023-10-13T14:34:50;8.77;;;5.20;;
11220;SDS011;8517;53.546;10.104;2023-10-13T14:37:25;12.30;;;5.88;;
11220;SDS011;8517;53.546;10.104;2023-10-13T14:39:58;10.82;;;7.07;;
11220;SDS011;8517;53.546;10.104;2023-10-13T14:42:27;13.85;;;5.97;;
11220;SDS011;8517;53.546;10.104;2023-10-13T14:45:02;16.25;;;6.93;;
11220;SDS011;8517;53.546;10.104;2023-10-13T14:47:37;13.03;;;6.90;;
11220;SDS011;8517;53.546;10.104;2023-10-13T14:50:05;12.63;;;7.28;;
11220;SDS011;8517;53.546;10.104;2023-10-13T14:52:33;14.93;;;7.78;;
11220;SDS011;8517;53.546;10.104;2023-10-13T14:55:00;11.13;;;6.30;;
11220;SDS011;8517;53.546;10.104;2023-10-13T14:57:32;13.85;;;6.07;;
11220;SDS011;8517;53.546;10.104;2023-10-13T15:00:04;12.88;;;5.97;;
11220;SDS011;8517;53.546;10.104;2023-10-13T15:02:38;12.52;;;5.75;;
11220;SDS011;8517;53.546;10.104;2023-10-13T15:05:08;12.67;;;6.23;;
11220;SDS011;8517;53.546;10.104;2023-10-13T15:07:41;13.95;;;7.22;;
11220;SDS011;8517;53.546;10.104;2023-10-13T15:10:10;15.07;;;7.28;;
11220;SDS011;8517;53.546;10.104;2023-10-13T15:12:40;16.40;;;6.85;;
11220;SDS011;8517;53.546;10.104;2023-10-13T15:15:10;12.40;;;6.65;;
11220;SDS011;8517;53.546;10.104;2023-10-13T15:17:41;14.50;;;6.15;;
11220;SDS011;8517;53.546;10.104;2023-10-13T15:20:25;13.82;;;5.57;;